Time;durP1;ratioP1;P1;durP2;ratioP2;P2;SDS_P1;SDS_P2;PMS_P1;PMS_P2;Temp;Humidity;BMP_temperature;BMP_pressure;BME280_temperature;BME280_humidity;BME280_pressure;Samples;Min_cycle;Max_cycle;Signal;HPM_P1;HPM_P2
2022/02/15 00:00:31;;;;;;;;;;;4.50;80.20;;;;;;5022929;28;87454;-43
2022/02/15 00:02:57;;;;;;;;;;;4.50;80.10;;;;;;5022435;28;89207;-47
2022/02/15 00:05:22;;;;;;;;;;;4.50;80.10;;;;;;5022193;28;88080;-44
2022/02/15 00:07:48;;;;;;;;;;;4.50;80.10;;;;;;5022775;28;90090;-46
2022/02/15 00:10:14;;;;;;;;;;;4.50;80.10;;;;;;5022352;28;89638;-47
2022/02/15 00:12:39;;;;;;;;;;;4.50;80.20;;;;;;5022747;28;87119;-47
2022/02/15 00:15:07;;;;;;;;;;;4.50;80.10;;;;;;5025389;28;88416;-45
2022/02/15 00:17:33;;;;;;;;;;;4.50;80.10;;;;;;5022763;28;87170;-45
2022/02/15 00:19:59;;;;;;;;;;;4.50;80.10;;;;;;5022563;28;88816;-46
2022/02/15 00:22:24;;;;;;;;;;;4.50;80.00;;;;;;5022710;28;88827;-48
2022/02/15 00:24:50;;;;;;;;;;;4.50;80.10;;;;;;5022674;28;87207;-45
2022/02/15 00:27:16;;;;;;;;;;;4.50;80.10;;;;;;5022701;28;89159;-45
2022/02/15 00:29:41;;;;;;;;;;;4.50;80.00;;;;;;5021554;28;90626;-45
2022/02/15 00:32:07;;;;;;;;;;;4.50;80.00;;;;;;5022365;28;87125;-44
2022/02/15 00:34:34;;;;;;;;;;;4.50;80.00;;;;;;5024867;28;88768;-43
2022/02/15 00:37:00;;;;;;;;;;;4.50;80.00;;;;;;5022677;28;87223;-48
2022/02/15 00:39:26;;;;;;;;;;;4.40;80.00;;;;;;5022623;28;89034;-45
2022/02/15 00:41:52;;;;;;;;;;;4.50;80.00;;;;;;5024242;28;90049;-45
2022/02/15 00:44:17;;;;;;;;;;;4.50;80.00;;;;;;5025490;28;87168;-47
2022/02/15 00:46:43;;;;;;;;;;;4.40;80.00;;;;;;5026312;28;89418;-45
2022/02/15 00:49:08;;;;;;;;;;;4.50;80.10;;;;;;5025284;28;88504;-45
2022/02/15 00:51:34;;;;;;;;;;;4.40;80.00;;;;;;5025722;28;86942;-48
2022/02/15 00:53:59;;;;;;;;;;;4.40;80.00;;;;;;5025052;28;88929;-46
2022/02/15 00:56:25;;;;;;;;;;;4.40;80.00;;;;;;5028423;28;89982;-46
2022/02/15 00:58:50;;;;;;;;;;;4.40;80.00;;;;;;5025890;28;87570;-44
2022/02/15 01:01:16;;;;;;;;;;;4.40;80.00;;;;;;5025420;28;88069;-47
2022/02/15 01:03:41;;;;;;;;;;;4.40;80.00;;;;;;5025428;28;86779;-48
2022/02/15 01:06:07;;;;;;;;;;;4.40;79.90;;;;;;5025345;28;89248;-47
2022/02/15 01:08:32;;;;;;;;;;;4.40;80.00;;;;;;5025080;28;89445;-43
2022/02/15 01:10:58;;;;;;;;;;;4.40;80.00;;;;;;5026040;28;86337;-48
2022/02/15 01:13:24;;;;;;;;;;;4.40;79.90;;;;;;5025364;28;88474;-46
2022/02/15 01:15:49;;;;;;;;;;;4.40;79.90;;;;;;5025110;28;89443;-50
2022/02/15 01:18:15;;;;;;;;;;;4.40;80.00;;;;;;5027619;28;88086;-47
2022/02/15 01:20:41;;;;;;;;;;;4.40;79.90;;;;;;5024638;28;89189;-42
2022/02/15 01:23:06;;;;;;;;;;;4.40;80.00;;;;;;5025168;28;87082;-48
2022/02/15 01:25:32;;;;;;;;;;;4.40;80.00;;;;;;5025287;28;89301;-45
2022/02/15 01:27:58;;;;;;;;;;;4.40;80.00;;;;;;5024954;28;89585;-47
2022/02/15 01:30:23;;;;;;;;;;;4.30;80.00;;;;;;5025400;28;87599;-46
2022/02/15 01:32:49;;;;;;;;;;;4.30;80.10;;;;;;5025079;28;89427;-47
2022/02/15 01:35:15;;;;;;;;;;;4.30;80.00;;;;;;5025027;28;88726;-47
2022/02/15 01:37:41;;;;;;;;;;;4.30;80.00;;;;;;5024849;28;87132;-45
2022/02/15 01:40:07;;;;;;;;;;;4.30;80.00;;;;;;5027542;28;87925;-44
2022/02/15 01:42:34;;;;;;;;;;;4.30;80.00;;;;;;5023550;28;88014;-43
2022/02/15 01:44:59;;;;;;;;;;;4.30;80.00;;;;;;5024982;28;90310;-48
2022/02/15 01:47:26;;;;;;;;;;;4.30;80.10;;;;;;5024485;28;89778;-45
2022/02/15 01:49:51;;;;;;;;;;;4.30;80.00;;;;;;5024619;28;87138;-46
2022/02/15 01:52:20;;;;;;;;;;;4.30;80.00;;;;;;5023774;28;89026;-48
2022/02/15 01:54:53;;;;;;;;;;;4.30;80.00;;;;;;5024328;28;89243;-46
2022/02/15 01:57:19;;;;;;;;;;;4.30;80.00;;;;;;5024675;28;87267;-45
2022/02/15 01:59:44;;;;;;;;;;;4.30;80.00;;;;;;5025227;28;89231;-44
2022/02/15 02:02:10;;;;;;;;;;;4.30;80.00;;;;;;5027057;28;90611;-45
2022/02/15 02:07:20;;;;;;;;;;;4.30;80.00;;;;;;5023813;28;88269;-47
2022/02/15 02:09:46;;;;;;;;;;;4.30;80.00;;;;;;5024771;28;87133;-44
2022/02/15 02:12:11;;;;;;;;;;;4.30;80.00;;;;;;5024319;28;89427;-50
2022/02/15 02:14:37;;;;;;;;;;;4.20;80.00;;;;;;5023978;28;89585;-46
2022/02/15 02:17:03;;;;;;;;;;;4.30;80.00;;;;;;5024141;28;87247;-43
2022/02/15 02:19:28;;;;;;;;;;;4.30;80.00;;;;;;5024315;28;89284;-43
2022/02/15 02:21:54;;;;;;;;;;;4.20;80.00;;;;;;5023883;28;89023;-45
2022/02/15 02:24:20;;;;;;;;;;;4.20;80.00;;;;;;5027389;28;86092;-44
2022/02/15 02:26:45;;;;;;;;;;;4.20;80.00;;;;;;5023883;28;89713;-45
2022/02/15 02:29:11;;;;;;;;;;;4.20;80.00;;;;;;5024309;28;87156;-47
2022/02/15 02:31:37;;;;;;;;;;;4.20;79.90;;;;;;5023211;28;89060;-45
2022/02/15 02:34:02;;;;;;;;;;;4.20;80.00;;;;;;5023905;28;89437;-46
2022/02/15 02:36:28;;;;;;;;;;;4.20;80.00;;;;;;5024325;28;87281;-45
2022/02/15 02:38:53;;;;;;;;;;;4.20;79.90;;;;;;5024244;28;87933;-46
2022/02/15 02:41:19;;;;;;;;;;;4.20;79.90;;;;;;5023644;28;88482;-45
2022/02/15 02:43:44;;;;;;;;;;;4.20;79.90;;;;;;5026612;28;87217;-44
2022/02/15 02:46:10;;;;;;;;;;;4.20;79.90;;;;;;5023463;28;89408;-48
2022/02/15 02:48:36;;;;;;;;;;;4.20;79.90;;;;;;5024421;28;86441;-47
2022/02/15 02:51:02;;;;;;;;;;;4.20;79.90;;;;;;5023940;28;88053;-45
2022/02/15 02:53:27;;;;;;;;;;;4.20;79.80;;;;;;5023593;28;89172;-48
2022/02/15 02:55:53;;;;;;;;;;;4.20;79.90;;;;;;5023201;28;87846;-43
2022/02/15 02:58:19;;;;;;;;;;;4.20;79.90;;;;;;5022534;28;91417;-48
2022/02/15 03:00:45;;;;;;;;;;;4.20;79.90;;;;;;5023367;28;89624;-43
2022/02/15 03:03:10;;;;;;;;;;;4.10;79.90;;;;;;5023376;28;87113;-47
2022/02/15 03:05:36;;;;;;;;;;;4.20;79.90;;;;;;5026128;28;88916;-48
2022/02/15 03:08:02;;;;;;;;;;;4.10;79.90;;;;;;5023662;28;87104;-46
2022/02/15 03:10:28;;;;;;;;;;;4.10;79.90;;;;;;5023693;28;88992;-47
2022/02/15 03:12:53;;;;;;;;;;;4.10;79.90;;;;;;5023798;28;88770;-44
2022/02/15 03:15:19;;;;;;;;;;;4.10;80.00;;;;;;5023623;28;87185;-47
2022/02/15 03:17:44;;;;;;;;;;;4.10;80.00;;;;;;5023250;28;88659;-46
2022/02/15 03:20:10;;;;;;;;;;;4.10;80.10;;;;;;5022425;28;89823;-46
2022/02/15 03:22:36;;;;;;;;;;;4.10;80.00;;;;;;5023320;28;87171;-45
2022/02/15 03:25:02;;;;;;;;;;;4.10;80.00;;;;;;5023412;28;89163;-45
2022/02/15 03:27:28;;;;;;;;;;;4.10;80.00;;;;;;5025920;28;90800;-46
2022/02/15 03:29:53;;;;;;;;;;;4.10;80.00;;;;;;5023412;28;89357;-48
2022/02/15 03:32:19;;;;;;;;;;;4.10;80.00;;;;;;5022753;28;89760;-45
2022/02/15 03:34:44;;;;;;;;;;;4.00;80.00;;;;;;5023320;28;87972;-45
2022/02/15 03:37:10;;;;;;;;;;;4.00;80.00;;;;;;5023813;28;88649;-48
2022/02/15 03:39:36;;;;;;;;;;;4.10;80.10;;;;;;5022731;28;89459;-47
2022/02/15 03:44:49;;;;;;;;;;;4.10;80.00;;;;;;5022682;28;87853;-46
2022/02/15 03:47:14;;;;;;;;;;;4.00;79.90;;;;;;5023078;28;88007;-47
2022/02/15 03:49:40;;;;;;;;;;;4.10;80.00;;;;;;5026128;28;87039;-47
2022/02/15 03:52:06;;;;;;;;;;;4.10;80.00;;;;;;5022774;28;89564;-46
2022/02/15 03:54:31;;;;;;;;;;;4.00;80.00;;;;;;5022884;28;87126;-49
2022/02/15 03:56:57;;;;;;;;;;;4.00;80.00;;;;;;5022917;28;89409;-48
2022/02/15 03:59:24;;;;;;;;;;;4.00;80.00;;;;;;5022462;28;89614;-47
2022/02/15 04:01:49;;;;;;;;;;;4.00;80.10;;;;;;5023508;28;86598;-47
2022/02/15 04:04:15;;;;;;;;;;;4.00;80.00;;;;;;5022954;28;88892;-47
2022/02/15 04:06:41;;;;;;;;;;;4.00;80.00;;;;;;5022802;28;89511;-48
2022/02/15 04:09:06;;;;;;;;;;;4.00;80.00;;;;;;5022097;28;88071;-46
2022/02/15 04:11:32;;;;;;;;;;;4.00;80.00;;;;;;5025330;28;89927;-46
2022/02/15 04:13:58;;;;;;;;;;;4.00;80.00;;;;;;5022803;28;87089;-47
2022/02/15 04:16:24;;;;;;;;;;;4.00;80.00;;;;;;5024550;28;89369;-46
2022/02/15 04:18:49;;;;;;;;;;;4.00;80.10;;;;;;5025848;28;89499;-47
2022/02/15 04:21:16;;;;;;;;;;;3.90;80.00;;;;;;5026468;28;87190;-47
2022/02/15 04:23:42;;;;;;;;;;;3.90;80.10;;;;;;5026228;28;89055;-48
2022/02/15 04:26:07;;;;;;;;;;;3.90;80.00;;;;;;5026225;28;88761;-47
2022/02/15 04:28:33;;;;;;;;;;;4.00;80.00;;;;;;5026062;28;87194;-48
2022/02/15 04:30:58;;;;;;;;;;;4.00;80.00;;;;;;5028511;28;87872;-47
2022/02/15 04:33:24;;;;;;;;;;;3.90;80.10;;;;;;5025261;28;88217;-46
2022/02/15 04:35:49;;;;;;;;;;;3.90;80.00;;;;;;5025937;28;88817;-46
2022/02/15 04:38:16;;;;;;;;;;;3.90;80.00;;;;;;5025582;28;89542;-48
2022/02/15 04:40:41;;;;;;;;;;;3.90;80.00;;;;;;5025734;28;87119;-45
2022/02/15 04:43:07;;;;;;;;;;;3.90;80.00;;;;;;5025207;28;89347;-48
2022/02/15 04:45:32;;;;;;;;;;;3.90;80.00;;;;;;5025452;28;89595;-48
2022/02/15 04:47:58;;;;;;;;;;;3.90;80.00;;;;;;5025672;28;87224;-48
2022/02/15 04:50:23;;;;;;;;;;;3.90;80.10;;;;;;5026162;28;87970;-44
2022/02/15 04:52:49;;;;;;;;;;;3.90;80.10;;;;;;5028291;28;89713;-43
2022/02/15 04:55:15;;;;;;;;;;;3.90;80.10;;;;;;5025599;28;89096;-45
2022/02/15 04:57:40;;;;;;;;;;;3.90;80.00;;;;;;5024578;28;90254;-46
2022/02/15 05:00:07;;;;;;;;;;;3.90;80.00;;;;;;5025533;28;87212;-44
2022/02/15 05:02:32;;;;;;;;;;;3.90;80.00;;;;;;5025306;28;88773;-47
2022/02/15 05:04:58;;;;;;;;;;;3.90;80.10;;;;;;5025138;28;89805;-46
2022/02/15 05:07:25;;;;;;;;;;;3.80;80.10;;;;;;5025534;28;86777;-46
2022/02/15 05:09:51;;;;;;;;;;;3.90;80.00;;;;;;5025475;28;88246;-47
2022/02/15 05:12:19;;;;;;;;;;;3.80;80.10;;;;;;5025007;28;89403;-48
2022/02/15 05:14:45;;;;;;;;;;;3.90;80.10;;;;;;5028797;28;86378;-44
2022/02/15 05:17:10;;;;;;;;;;;3.90;80.00;;;;;;5024903;28;89759;-50
2022/02/15 05:19:36;;;;;;;;;;;3.80;80.00;;;;;;5025286;28;87220;-47
2022/02/15 05:22:01;;;;;;;;;;;3.80;80.00;;;;;;5024504;28;89044;-49
2022/02/15 05:24:27;;;;;;;;;;;3.80;79.90;;;;;;5024898;28;89715;-45
2022/02/15 05:26:53;;;;;;;;;;;3.80;79.90;;;;;;5025221;28;87109;-48
2022/02/15 05:29:18;;;;;;;;;;;3.80;79.90;;;;;;5025251;28;89288;-45
2022/02/15 05:31:47;;;;;;;;;;;3.80;80.00;;;;;;5024785;28;88502;-46
2022/02/15 05:34:13;;;;;;;;;;;3.80;80.10;;;;;;5025053;28;86896;-46
2022/02/15 05:36:39;;;;;;;;;;;3.80;79.90;;;;;;5027817;28;89103;-43
2022/02/15 05:39:05;;;;;;;;;;;3.80;80.00;;;;;;5025462;28;86449;-43
2022/02/15 05:41:31;;;;;;;;;;;3.80;80.00;;;;;;5024912;28;88176;-49
2022/02/15 05:43:56;;;;;;;;;;;3.70;80.00;;;;;;5023579;28;89486;-45
2022/02/15 05:46:22;;;;;;;;;;;3.70;80.10;;;;;;5024222;28;88047;-45
2022/02/15 05:48:47;;;;;;;;;;;3.80;80.10;;;;;;5024769;28;88816;-44
2022/02/15 05:51:13;;;;;;;;;;;3.80;80.00;;;;;;5024476;28;89658;-49
2022/02/15 05:53:38;;;;;;;;;;;3.70;80.10;;;;;;5024922;28;87116;-46
2022/02/15 05:56:05;;;;;;;;;;;3.80;80.00;;;;;;5024608;28;89073;-45
2022/02/15 05:58:32;;;;;;;;;;;3.70;80.00;;;;;;5027218;28;89258;-46
2022/02/15 06:00:58;;;;;;;;;;;3.70;80.20;;;;;;5024446;28;89108;-45
2022/02/15 06:06:08;;;;;;;;;;;3.70;80.00;;;;;;5023509;28;86899;-45
2022/02/15 06:08:34;;;;;;;;;;;3.70;80.00;;;;;;5024533;28;88969;-46
2022/02/15 06:11:00;;;;;;;;;;;3.70;80.20;;;;;;5023460;28;90711;-47
2022/02/15 06:13:25;;;;;;;;;;;3.70;80.00;;;;;;5024186;28;87014;-45
2022/02/15 06:15:51;;;;;;;;;;;3.70;80.00;;;;;;5024453;28;88744;-44
2022/02/15 06:18:16;;;;;;;;;;;3.70;79.90;;;;;;5023918;28;89550;-45
2022/02/15 06:20:42;;;;;;;;;;;3.70;80.00;;;;;;5027294;28;86972;-47
2022/02/15 06:23:07;;;;;;;;;;;3.70;79.90;;;;;;5023712;28;89946;-43
2022/02/15 06:25:33;;;;;;;;;;;3.70;80.00;;;;;;5024187;28;87261;-43
2022/02/15 06:27:59;;;;;;;;;;;3.70;79.90;;;;;;5024497;28;88890;-46
2022/02/15 06:30:24;;;;;;;;;;;3.70;80.00;;;;;;5023870;28;89595;-50
2022/02/15 06:32:50;;;;;;;;;;;3.70;80.10;;;;;;5024206;28;87185;-45
2022/02/15 06:35:16;;;;;;;;;;;3.70;80.10;;;;;;5023530;28;88915;-45
2022/02/15 06:37:44;;;;;;;;;;;3.70;80.00;;;;;;5023613;28;89088;-51
2022/02/15 06:40:12;;;;;;;;;;;3.70;80.00;;;;;;5026519;28;87199;-45
2022/02/15 06:42:38;;;;;;;;;;;3.70;80.00;;;;;;5023046;28;89800;-47
2022/02/15 06:45:03;;;;;;;;;;;3.70;80.00;;;;;;5024453;28;86879;-44
2022/02/15 06:47:29;;;;;;;;;;;3.70;80.20;;;;;;5024059;28;88854;-48
2022/02/15 06:49:55;;;;;;;;;;;3.70;80.20;;;;;;5023795;28;89371;-47
2022/02/15 06:52:20;;;;;;;;;;;3.70;80.20;;;;;;5024307;28;86359;-49
2022/02/15 06:54:46;;;;;;;;;;;3.70;80.10;;;;;;5023877;28;88179;-48
2022/02/15 06:57:12;;;;;;;;;;;3.70;80.00;;;;;;5023204;28;88535;-48
2022/02/15 06:59:37;;;;;;;;;;;3.70;80.00;;;;;;5023221;28;88099;-46
2022/02/15 07:02:03;;;;;;;;;;;3.70;80.10;;;;;;5026139;28;89105;-45
2022/02/15 07:04:29;;;;;;;;;;;3.70;80.00;;;;;;5023784;28;87187;-47
2022/02/15 07:06:55;;;;;;;;;;;3.70;80.00;;;;;;5023635;28;88997;-45
2022/02/15 07:09:21;;;;;;;;;;;3.70;80.00;;;;;;5023282;28;89376;-47
2022/02/15 07:11:47;;;;;;;;;;;3.70;80.00;;;;;;5023436;28;87204;-46
2022/02/15 07:14:12;;;;;;;;;;;3.70;80.00;;;;;;5023909;28;87851;-46
2022/02/15 07:16:38;;;;;;;;;;;3.70;79.90;;;;;;5024031;28;88866;-47
2022/02/15 07:19:04;;;;;;;;;;;3.70;80.00;;;;;;5023709;28;87173;-44
2022/02/15 07:21:32;;;;;;;;;;;3.70;79.80;;;;;;5023306;28;88894;-47
2022/02/15 07:23:57;;;;;;;;;;;3.70;79.80;;;;;;5025493;28;90423;-46
2022/02/15 07:26:23;;;;;;;;;;;3.70;79.80;;;;;;5023236;28;89703;-49
2022/02/15 07:28:49;;;;;;;;;;;3.70;79.80;;;;;;5023231;28;89178;-51
2022/02/15 07:31:14;;;;;;;;;;;3.80;79.80;;;;;;5023374;28;87063;-48
2022/02/15 07:33:40;;;;;;;;;;;3.80;79.80;;;;;;5023443;28;88662;-44
2022/02/15 07:36:06;;;;;;;;;;;3.80;79.70;;;;;;5022941;28;89513;-48
2022/02/15 07:38:31;;;;;;;;;;;3.80;79.70;;;;;;5023352;28;87184;-43
2022/02/15 07:40:57;;;;;;;;;;;3.80;79.60;;;;;;5023976;28;87301;-46
2022/02/15 07:43:24;;;;;;;;;;;3.80;79.60;;;;;;5022101;28;89845;-46
2022/02/15 07:45:50;;;;;;;;;;;3.80;79.60;;;;;;5026358;28;87134;-45
2022/02/15 07:48:16;;;;;;;;;;;3.80;79.60;;;;;;5022219;28;89203;-44
2022/02/15 07:50:42;;;;;;;;;;;3.80;79.60;;;;;;5023795;28;86751;-48
2022/02/15 07:53:07;;;;;;;;;;;3.80;79.50;;;;;;5026681;28;88685;-43
2022/02/15 07:55:33;;;;;;;;;;;3.80;79.60;;;;;;5026357;28;89620;-47
2022/02/15 07:57:59;;;;;;;;;;;3.80;79.60;;;;;;5026437;28;87217;-47
2022/02/15 08:00:24;;;;;;;;;;;3.80;79.70;;;;;;5026570;28;88848;-50
2022/02/15 08:02:51;;;;;;;;;;;3.80;79.60;;;;;;5026059;28;89820;-43
2022/02/15 08:05:17;;;;;;;;;;;3.80;79.50;;;;;;5027246;28;86343;-48
2022/02/15 08:07:47;;;;;;;;;;;3.80;79.70;;;;;;5029029;28;87506;-46
2022/02/15 08:10:13;;;;;;;;;;;3.80;79.60;;;;;;5026259;28;87170;-45
2022/02/15 08:12:42;;;;;;;;;;;3.80;79.60;;;;;;5025673;28;88787;-46
2022/02/15 08:15:09;;;;;;;;;;;3.80;79.60;;;;;;5026270;28;88495;-47
2022/02/15 08:17:34;;;;;;;;;;;3.80;79.70;;;;;;5026288;28;87142;-47
2022/02/15 08:20:00;;;;;;;;;;;3.80;79.70;;;;;;5026149;28;89044;-44
2022/02/15 08:22:25;;;;;;;;;;;3.80;79.60;;;;;;5025760;28;88806;-45
2022/02/15 08:24:51;;;;;;;;;;;3.80;79.70;;;;;;5026219;28;87153;-44
2022/02/15 08:27:16;;;;;;;;;;;3.80;79.60;;;;;;5026119;28;89050;-45
2022/02/15 08:29:44;;;;;;;;;;;3.80;79.60;;;;;;5029239;28;88885;-48
2022/02/15 08:32:09;;;;;;;;;;;3.80;79.70;;;;;;5025987;28;87877;-48
2022/02/15 08:34:35;;;;;;;;;;;3.80;79.70;;;;;;5025639;28;89375;-45
2022/02/15 08:37:02;;;;;;;;;;;3.80;79.80;;;;;;5025393;28;87922;-48
2022/02/15 08:39:28;;;;;;;;;;;3.80;79.80;;;;;;5025954;28;89710;-45
2022/02/15 08:41:54;;;;;;;;;;;3.80;79.80;;;;;;5025334;28;88723;-46
2022/02/15 08:44:20;;;;;;;;;;;3.80;79.80;;;;;;5025160;28;87134;-45
2022/02/15 08:46:45;;;;;;;;;;;3.80;79.80;;;;;;5024720;28;88688;-46
2022/02/15 08:49:11;;;;;;;;;;;3.80;79.90;;;;;;5027204;28;89568;-49
2022/02/15 08:51:38;;;;;;;;;;;3.80;79.80;;;;;;5024658;28;88908;-48
2022/02/15 08:54:04;;;;;;;;;;;3.80;79.80;;;;;;5024973;28;87763;-45
2022/02/15 08:56:29;;;;;;;;;;;3.80;79.90;;;;;;5024506;28;87128;-47
2022/02/15 08:58:55;;;;;;;;;;;3.80;79.80;;;;;;5024614;28;89358;-49
2022/02/15 09:01:20;;;;;;;;;;;3.80;79.80;;;;;;5023145;28;90324;-42
2022/02/15 09:03:46;;;;;;;;;;;3.80;79.80;;;;;;5024572;28;87146;-45
2022/02/15 09:06:12;;;;;;;;;;;3.80;79.90;;;;;;5024487;28;88532;-44
2022/02/15 09:08:37;;;;;;;;;;;3.80;79.90;;;;;;5024081;28;89254;-45
2022/02/15 09:11:03;;;;;;;;;;;3.80;80.00;;;;;;5027154;28;87257;-46
2022/02/15 09:13:28;;;;;;;;;;;3.80;80.00;;;;;;5024308;28;89425;-48
2022/02/15 09:15:54;;;;;;;;;;;3.80;80.10;;;;;;5024194;28;87167;-47
2022/02/15 09:18:20;;;;;;;;;;;3.80;80.10;;;;;;5024668;28;89029;-46
2022/02/15 09:20:45;;;;;;;;;;;3.80;80.10;;;;;;5023986;28;89413;-45
2022/02/15 09:23:11;;;;;;;;;;;3.80;80.10;;;;;;5024017;28;86966;-45
2022/02/15 09:25:36;;;;;;;;;;;3.80;80.10;;;;;;5023520;28;88195;-45
2022/02/15 09:28:02;;;;;;;;;;;3.80;80.10;;;;;;5023651;28;89601;-46
2022/02/15 09:30:28;;;;;;;;;;;3.80;80.10;;;;;;5024099;28;87166;-44
2022/02/15 09:32:54;;;;;;;;;;;3.80;80.10;;;;;;5026529;28;89116;-48
2022/02/15 09:35:19;;;;;;;;;;;3.80;80.10;;;;;;5024080;28;86999;-46
2022/02/15 09:37:45;;;;;;;;;;;3.80;80.10;;;;;;5023856;28;88798;-44
2022/02/15 09:40:12;;;;;;;;;;;3.80;80.00;;;;;;5023252;28;89351;-46
2022/02/15 09:42:39;;;;;;;;;;;3.80;80.10;;;;;;4977925;28;1300163;-46
2022/02/15 09:45:06;;;;;;;;;;;3.80;80.10;;;;;;5025147;28;88096;-47
2022/02/15 09:47:32;;;;;;;;;;;3.80;80.10;;;;;;5024563;28;89202;-47
2022/02/15 09:49:59;;;;;;;;;;;3.80;80.00;;;;;;5024475;28;88120;-47
2022/02/15 09:52:24;;;;;;;;;;;3.80;80.00;;;;;;5024738;28;88876;-46
2022/02/15 09:54:52;;;;;;;;;;;3.90;80.00;;;;;;5027265;28;89554;-47
2022/02/15 09:57:18;;;;;;;;;;;3.80;79.90;;;;;;5024699;28;87781;-46
2022/02/15 09:59:46;;;;;;;;;;;3.90;79.90;;;;;;5024297;28;89497;-47
2022/02/15 10:02:14;;;;;;;;;;;3.80;79.90;;;;;;5024636;28;87103;-47
2022/02/15 10:04:40;;;;;;;;;;;3.90;79.90;;;;;;5024803;28;88889;-42
2022/02/15 10:07:07;;;;;;;;;;;3.90;79.90;;;;;;5024643;28;88648;-43
2022/02/15 10:09:33;;;;;;;;;;;3.90;79.90;;;;;;5024382;28;87153;-46
2022/02/15 10:12:06;;;;;;;;;;;3.90;79.80;;;;;;5024542;28;88797;-46
2022/02/15 10:14:39;;;;;;;;;;;3.90;79.70;;;;;;5022538;28;91605;-44
2022/02/15 10:17:10;;;;;;;;;;;3.90;79.70;;;;;;5027275;28;87007;-44
2022/02/15 10:19:35;;;;;;;;;;;3.90;79.70;;;;;;5024082;28;89128;-47
2022/02/15 10:22:02;;;;;;;;;;;4.00;79.70;;;;;;5024054;28;87208;-46
2022/02/15 10:24:29;;;;;;;;;;;3.90;79.70;;;;;;5024662;28;87365;-45
2022/02/15 10:27:05;;;;;;;;;;;4.00;79.60;;;;;;5023971;28;89834;-45
2022/02/15 10:29:32;;;;;;;;;;;4.00;79.70;;;;;;5024304;28;87126;-46
2022/02/15 10:32:02;;;;;;;;;;;4.00;79.60;;;;;;5024777;28;88896;-44
2022/02/15 10:34:28;;;;;;;;;;;4.00;79.70;;;;;;5023780;28;89061;-46
2022/02/15 10:36:54;;;;;;;;;;;4.00;79.80;;;;;;5023880;28;87201;-41
2022/02/15 10:39:19;;;;;;;;;;;4.10;79.80;;;;;;5026176;28;88927;-46
2022/02/15 10:41:45;;;;;;;;;;;4.10;79.90;;;;;;5024098;28;87106;-47
2022/02/15 10:44:11;;;;;;;;;;;4.10;79.90;;;;;;5023695;28;89348;-47
2022/02/15 10:46:39;;;;;;;;;;;4.00;79.80;;;;;;5023645;28;89462;-41
2022/02/15 10:49:04;;;;;;;;;;;4.10;79.90;;;;;;5024166;28;86789;-44
2022/02/15 10:51:30;;;;;;;;;;;4.10;79.90;;;;;;5023738;28;88680;-46
2022/02/15 10:53:56;;;;;;;;;;;4.10;79.90;;;;;;5023431;28;89457;-46
2022/02/15 10:56:21;;;;;;;;;;;4.10;79.90;;;;;;5024564;28;86339;-45
2022/02/15 10:58:47;;;;;;;;;;;4.10;80.00;;;;;;5026498;28;88321;-44
2022/02/15 11:01:13;;;;;;;;;;;4.20;80.10;;;;;;5023585;28;87108;-43
2022/02/15 11:03:39;;;;;;;;;;;4.20;80.00;;;;;;5023074;28;88844;-47
2022/02/15 11:06:06;;;;;;;;;;;4.20;80.20;;;;;;5023071;28;88718;-41
2022/02/15 11:08:32;;;;;;;;;;;4.20;80.20;;;;;;5023880;28;87117;-45
2022/02/15 11:11:06;;;;;;;;;;;4.20;80.00;;;;;;5023831;28;88925;-43
2022/02/15 11:13:34;;;;;;;;;;;4.20;80.20;;;;;;5022959;28;89866;-44
2022/02/15 11:16:02;;;;;;;;;;;4.20;80.30;;;;;;5023634;28;87057;-46
2022/02/15 11:18:32;;;;;;;;;;;4.30;80.30;;;;;;5023406;28;87610;-44
2022/02/15 11:21:02;;;;;;;;;;;4.30;80.30;;;;;;5026691;28;88199;-45
2022/02/15 11:23:35;;;;;;;;;;;4.30;80.40;;;;;;5023613;28;88246;-45
2022/02/15 11:26:20;;;;;;;;;;;4.30;80.30;;;;;;5022964;28;89411;-42
2022/02/15 11:28:52;;;;;;;;;;;4.30;80.40;;;;;;5022802;28;87924;-42
2022/02/15 11:31:27;;;;;;;;;;;4.30;80.50;;;;;;5023324;28;90005;-45
2022/02/15 11:33:53;;;;;;;;;;;4.40;80.50;;;;;;5022957;28;89482;-46
2022/02/15 11:36:23;;;;;;;;;;;4.40;80.60;;;;;;5023382;28;87140;-43
2022/02/15 11:39:02;;;;;;;;;;;4.40;80.50;;;;;;5023297;28;87611;-44
2022/02/15 11:41:29;;;;;;;;;;;4.40;81.10;;;;;;5022840;28;89431;-46
2022/02/15 11:44:03;;;;;;;;;;;4.40;80.70;;;;;;5026049;28;87165;-47
2022/02/15 11:46:46;;;;;;;;;;;4.40;80.60;;;;;;5023335;28;88629;-46
2022/02/15 11:49:18;;;;;;;;;;;4.40;80.70;;;;;;5023480;28;86998;-46
2022/02/15 11:51:45;;;;;;;;;;;4.50;80.70;;;;;;5023116;28;88999;-45
2022/02/15 11:54:15;;;;;;;;;;;4.50;80.80;;;;;;5022218;28;90598;-48
2022/02/15 11:56:45;;;;;;;;;;;4.50;80.90;;;;;;5022991;28;87026;-47
2022/02/15 11:59:15;;;;;;;;;;;4.50;80.80;;;;;;5023130;28;88756;-45
2022/02/15 12:01:42;;;;;;;;;;;4.60;80.90;;;;;;5022754;28;89441;-48
2022/02/15 12:04:09;;;;;;;;;;;4.60;80.90;;;;;;5022832;28;86858;-48
2022/02/15 12:06:36;;;;;;;;;;;4.60;80.70;;;;;;5025341;28;89168;-45
2022/02/15 12:09:02;;;;;;;;;;;4.60;80.80;;;;;;5023276;28;87036;-45
2022/02/15 12:11:31;;;;;;;;;;;4.60;80.90;;;;;;5023360;28;88537;-49
2022/02/15 12:13:57;;;;;;;;;;;4.60;80.70;;;;;;5022655;28;89455;-45
2022/02/15 12:16:23;;;;;;;;;;;4.70;80.90;;;;;;5022603;28;87128;-42
2022/02/15 12:18:49;;;;;;;;;;;4.70;80.90;;;;;;5022135;28;88818;-44
2022/02/15 12:21:14;;;;;;;;;;;4.60;80.90;;;;;;5022137;28;89583;-47
2022/02/15 12:23:40;;;;;;;;;;;4.70;80.90;;;;;;5022616;28;87161;-45
2022/02/15 12:26:06;;;;;;;;;;;4.70;80.90;;;;;;5022678;28;88909;-43
2022/02/15 12:28:32;;;;;;;;;;;4.70;80.90;;;;;;5025425;28;89562;-43
2022/02/15 12:30:57;;;;;;;;;;;4.70;80.90;;;;;;5022767;28;88632;-47
2022/02/15 12:33:32;;;;;;;;;;;4.70;80.90;;;;;;5022139;28;89449;-44
2022/02/15 12:35:57;;;;;;;;;;;4.80;81.00;;;;;;5022965;28;86182;-41
2022/02/15 12:38:34;;;;;;;;;;;4.80;81.00;;;;;;5025707;28;88794;-43
2022/02/15 12:41:00;;;;;;;;;;;4.80;81.00;;;;;;5025901;28;89525;-45
2022/02/15 12:43:29;;;;;;;;;;;4.80;81.00;;;;;;5024909;28;88116;-44
2022/02/15 12:45:54;;;;;;;;;;;4.80;81.10;;;;;;5025960;28;89583;-43
2022/02/15 12:48:21;;;;;;;;;;;4.90;81.10;;;;;;5025415;28;88631;-44
2022/02/15 12:50:48;;;;;;;;;;;4.90;79.20;;;;;;5028656;28;86913;-39
2022/02/15 12:53:13;;;;;;;;;;;5.30;78.30;;;;;;5025199;28;89755;-42
2022/02/15 12:55:39;;;;;;;;;;;5.60;76.20;;;;;;5025582;28;87071;-44
2022/02/15 12:58:06;;;;;;;;;;;5.70;75.90;;;;;;5025683;28;89411;-44
2022/02/15 13:00:31;;;;;;;;;;;5.80;74.10;;;;;;5026052;28;88900;-43
2022/02/15 13:03:00;;;;;;;;;;;5.80;76.00;;;;;;5025442;28;87214;-45
2022/02/15 13:05:30;;;;;;;;;;;5.50;77.40;;;;;;5025802;28;88881;-43
2022/02/15 13:07:56;;;;;;;;;;;5.40;78.20;;;;;;5024367;28;90856;-43
2022/02/15 13:10:22;;;;;;;;;;;5.40;78.40;;;;;;5028666;28;87159;-45
2022/02/15 13:12:47;;;;;;;;;;;5.50;78.80;;;;;;5025013;28;89367;-45
2022/02/15 13:15:16;;;;;;;;;;;5.40;79.00;;;;;;5025505;28;87230;-43
2022/02/15 13:17:45;;;;;;;;;;;5.40;79.20;;;;;;5025333;28;87754;-47
2022/02/15 13:20:11;;;;;;;;;;;5.40;79.20;;;;;;5024945;28;89525;-47
2022/02/15 13:22:36;;;;;;;;;;;5.40;79.60;;;;;;5025350;28;87254;-46
2022/02/15 13:25:02;;;;;;;;;;;5.40;79.70;;;;;;5025878;28;89114;-47
2022/02/15 13:27:28;;;;;;;;;;;5.40;79.70;;;;;;5024971;28;89496;-47
2022/02/15 13:29:54;;;;;;;;;;;5.40;79.70;;;;;;5025286;28;87134;-45
2022/02/15 13:32:35;;;;;;;;;;;5.50;79.90;;;;;;5026968;28;88775;-43
2022/02/15 13:35:01;;;;;;;;;;;5.40;79.70;;;;;;5025372;28;86948;-44
2022/02/15 13:37:37;;;;;;;;;;;5.50;79.60;;;;;;5025278;28;89060;-46
2022/02/15 13:40:04;;;;;;;;;;;5.50;79.90;;;;;;5024630;28;89830;-46
2022/02/15 13:42:30;;;;;;;;;;;5.50;80.10;;;;;;5024599;28;87141;-44
2022/02/15 13:44:55;;;;;;;;;;;5.50;80.20;;;;;;5025120;28;87742;-46
2022/02/15 13:47:21;;;;;;;;;;;5.50;80.30;;;;;;5024356;28;88726;-44
2022/02/15 13:49:47;;;;;;;;;;;5.50;80.20;;;;;;5024453;28;86504;-46
2022/02/15 13:52:14;;;;;;;;;;;5.50;80.10;;;;;;5024820;28;87950;-47
2022/02/15 13:54:40;;;;;;;;;;;5.50;80.20;;;;;;5027545;28;89418;-44
2022/02/15 13:57:05;;;;;;;;;;;5.60;80.40;;;;;;5024223;28;88861;-48
2022/02/15 13:59:31;;;;;;;;;;;5.60;80.40;;;;;;5024032;28;89954;-42
2022/02/15 14:01:57;;;;;;;;;;;5.60;80.20;;;;;;5024546;28;87107;-47
2022/02/15 14:04:26;;;;;;;;;;;5.60;80.30;;;;;;5024598;28;88680;-46
2022/02/15 14:06:53;;;;;;;;;;;5.60;80.20;;;;;;5024433;28;88393;-43
2022/02/15 14:09:19;;;;;;;;;;;5.60;80.20;;;;;;5024690;28;87124;-45
2022/02/15 14:11:44;;;;;;;;;;;5.70;80.50;;;;;;5024535;28;89330;-47
2022/02/15 14:14:10;;;;;;;;;;;5.70;80.30;;;;;;5024480;28;88290;-44
2022/02/15 14:16:35;;;;;;;;;;;5.70;80.40;;;;;;5027586;28;87202;-46
2022/02/15 14:19:01;;;;;;;;;;;5.70;80.40;;;;;;5024030;28;89430;-43
2022/02/15 14:21:26;;;;;;;;;;;5.70;80.50;;;;;;5023585;28;88122;-45
2022/02/15 14:23:52;;;;;;;;;;;5.70;80.70;;;;;;5024124;28;90456;-45
2022/02/15 14:26:18;;;;;;;;;;;5.80;80.70;;;;;;5024096;28;89439;-43
2022/02/15 14:28:44;;;;;;;;;;;5.80;80.80;;;;;;5024296;28;87134;-43
2022/02/15 14:31:12;;;;;;;;;;;5.80;80.70;;;;;;5024546;28;87256;-44
2022/02/15 14:33:37;;;;;;;;;;;5.80;80.60;;;;;;5023835;28;89712;-46